createdAt,value
2022-09-15T00:01:02.343Z,9.80
2022-09-15T00:11:07.496Z,12.20
2022-09-15T00:21:07.130Z,12.10
2022-09-15T00:31:06.707Z,11.70
2022-09-15T00:41:06.410Z,11.00
2022-09-15T00:51:05.876Z,11.20
2022-09-15T01:01:05.607Z,10.40
2022-09-15T01:11:05.308Z,10.80
2022-09-15T01:21:04.764Z,9.50
2022-09-15T01:51:09.580Z,9.50
2022-09-15T02:01:09.238Z,9.20
2022-09-15T02:11:08.825Z,10.10
2022-09-15T02:21:08.624Z,9.60
2022-09-15T02:31:08.298Z,9.50
2022-09-15T02:41:07.737Z,8.80
2022-09-15T02:51:07.388Z,8.80
2022-09-15T03:01:07.039Z,8.80
2022-09-15T03:11:06.641Z,9.60
2022-09-15T03:21:06.272Z,8.00
2022-09-15T03:31:06.031Z,9.20
2022-09-15T03:41:05.976Z,9.40
2022-09-15T03:51:06.183Z,9.80
2022-09-15T04:01:06.165Z,10.90
2022-09-15T04:11:06.149Z,11.90
2022-09-15T04:21:06.529Z,14.40
2022-09-15T04:31:06.544Z,13.10
2022-09-15T04:41:06.587Z,9.30
2022-09-15T04:51:11.743Z,11.70
2022-09-15T05:01:11.432Z,12.60
2022-09-15T05:11:10.875Z,11.80
2022-09-15T05:21:10.675Z,12.40
2022-09-15T05:31:10.235Z,13.00
2022-09-15T05:41:09.823Z,12.70
2022-09-15T05:51:09.457Z,12.70
2022-09-15T06:01:09.115Z,11.60
2022-09-15T06:11:08.751Z,11.80
2022-09-15T06:21:08.487Z,11.80
2022-09-15T06:31:08.630Z,13.70
2022-09-15T06:41:13.776Z,14.10
2022-09-15T06:51:13.423Z,16.50
2022-09-15T07:01:13.093Z,16.00
2022-09-15T07:11:12.697Z,17.40
2022-09-15T07:21:12.488Z,16.20
2022-09-15T07:31:12.225Z,15.70
2022-09-15T07:41:11.797Z,14.70
2022-09-15T07:51:11.429Z,15.10
2022-09-15T08:01:10.997Z,13.50
2022-09-15T08:11:12.180Z,9.50
2022-09-15T08:21:10.399Z,8.40
2022-09-15T08:31:15.567Z,8.80
2022-09-15T08:41:15.312Z,8.80
2022-09-15T08:51:14.784Z,7.00
2022-09-15T09:01:14.456Z,5.70
2022-09-15T09:11:14.061Z,6.70
2022-09-15T09:21:13.692Z,6.70
2022-09-15T09:31:13.366Z,8.50
2022-09-15T09:41:12.967Z,7.10
2022-09-15T09:51:12.763Z,5.90
2022-09-15T10:01:12.587Z,5.60
2022-09-15T10:11:17.692Z,5.60
2022-09-15T10:21:17.154Z,6.00
2022-09-15T10:31:16.816Z,5.70
2022-09-15T10:41:16.141Z,5.80
2022-09-15T10:51:15.631Z,6.20
2022-09-15T11:01:15.307Z,6.30
2022-09-15T11:11:14.888Z,6.70
2022-09-15T11:21:14.677Z,6.40
2022-09-15T11:31:19.829Z,6.50
2022-09-15T11:41:19.277Z,7.30
2022-09-15T11:51:19.049Z,6.10
2022-09-15T12:01:18.679Z,5.80
2022-09-15T12:11:18.324Z,5.10
2022-09-15T12:21:17.803Z,4.10
2022-09-15T12:31:17.456Z,3.40
2022-09-15T12:41:17.246Z,3.50
2022-09-15T12:51:17.266Z,4.60
2022-09-15T13:01:22.480Z,4.30
2022-09-15T13:11:21.904Z,5.20
2022-09-15T17:21:41.245Z,4.00
2022-09-15T17:31:41.041Z,4.50
2022-09-15T17:41:40.528Z,4.40
2022-09-15T17:51:40.200Z,4.30
2022-09-15T18:01:40.140Z,4.00
2022-09-15T18:11:45.235Z,4.30
2022-09-15T18:21:44.937Z,3.50
2022-09-15T18:31:43.926Z,3.90
2022-09-15T18:41:43.401Z,3.80
2022-09-15T18:51:51.405Z,3.50
2022-09-15T19:01:42.623Z,3.70
2022-09-15T19:11:42.138Z,3.80
2022-09-15T19:21:41.908Z,3.80
2022-09-15T19:31:42.209Z,4.00
2022-09-15T19:41:41.912Z,3.70
2022-09-15T19:51:41.973Z,3.90
2022-09-15T20:01:41.999Z,3.30
2022-09-15T20:11:47.118Z,3.60
2022-09-15T20:21:50.145Z,3.50
2022-09-15T20:31:46.550Z,3.80
2022-09-15T20:41:45.972Z,3.60
2022-09-15T20:51:45.545Z,3.40
2022-09-15T21:01:45.316Z,3.40
2022-09-15T21:11:44.783Z,3.40
2022-09-15T21:21:44.525Z,3.40
2022-09-15T21:31:43.988Z,3.80
2022-09-15T21:41:43.586Z,3.60
